sensor_id;sensor_type;location;lat;lon;timestamp;temperature;humidity
7399;DHT22;3740;50.700;7.184;2023-03-01T00:01:07;1.10;99.90
7399;DHT22;3740;50.700;7.184;2023-03-01T00:03:33;1.10;99.90
7399;DHT22;3740;50.700;7.184;2023-03-01T00:06:00;1.10;99.90
7399;DHT22;3740;50.700;7.184;2023-03-01T00:08:26;1.10;99.90
7399;DHT22;3740;50.700;7.184;2023-03-01T00:11:11;1.10;99.90
7399;DHT22;3740;50.700;7.184;2023-03-01T00:13:37;1.00;99.90
7399;DHT22;3740;50.700;7.184;2023-03-01T00:16:08;0.80;99.90
7399;DHT22;3740;50.700;7.184;2023-03-01T00:18:34;0.90;99.90
7399;DHT22;3740;50.700;7.184;2023-03-01T00:21:00;1.10;99.90
7399;DHT22;3740;50.700;7.184;2023-03-01T00:23:26;1.10;99.90
7399;DHT22;3740;50.700;7.184;2023-03-01T00:25:52;1.30;99.90
7399;DHT22;3740;50.700;7.184;2023-03-01T00:28:18;1.30;99.90
7399;DHT22;3740;50.700;7.184;2023-03-01T00:30:44;1.10;99.90
7399;DHT22;3740;50.700;7.184;2023-03-01T00:33:09;1.10;99.90
7399;DHT22;3740;50.700;7.184;2023-03-01T00:35:35;1.10;99.90
7399;DHT22;3740;50.700;7.184;2023-03-01T00:38:01;1.10;99.90
7399;DHT22;3740;50.700;7.184;2023-03-01T00:40:28;1.00;99.90
7399;DHT22;3740;50.700;7.184;2023-03-01T00:42:54;1.00;99.90
7399;DHT22;3740;50.700;7.184;2023-03-01T00:45:20;1.00;99.90
7399;DHT22;3740;50.700;7.184;2023-03-01T00:47:46;0.90;99.90
7399;DHT22;3740;50.700;7.184;2023-03-01T00:50:13;0.90;99.90
7399;DHT22;3740;50.700;7.184;2023-03-01T00:52:38;0.80;99.90
7399;DHT22;3740;50.700;7.184;2023-03-01T00:55:04;0.70;99.90
7399;DHT22;3740;50.700;7.184;2023-03-01T00:57:31;0.70;99.90
7399;DHT22;3740;50.700;7.184;2023-03-01T00:59:56;0.80;99.90
7399;DHT22;3740;50.700;7.184;2023-03-01T01:02:22;0.70;99.90
7399;DHT22;3740;50.700;7.184;2023-03-01T01:04:48;0.70;99.90
7399;DHT22;3740;50.700;7.184;2023-03-01T01:07:14;0.70;99.90
7399;DHT22;3740;50.700;7.184;2023-03-01T01:09:40;0.70;99.90
7399;DHT22;3740;50.700;7.184;2023-03-01T01:12:06;0.90;99.90
7399;DHT22;3740;50.700;7.184;2023-03-01T01:14:32;0.90;99.90
7399;DHT22;3740;50.700;7.184;2023-03-01T01:16:58;0.80;99.90
7399;DHT22;3740;50.700;7.184;2023-03-01T01:19:25;0.70;99.90
7399;DHT22;3740;50.700;7.184;2023-03-01T01:21:50;0.70;99.90
7399;DHT22;3740;50.700;7.184;2023-03-01T01:24:16;0.70;99.90
7399;DHT22;3740;50.700;7.184;2023-03-01T01:26:43;0.60;99.90
7399;DHT22;3740;50.700;7.184;2023-03-01T01:29:09;0.60;99.90
7399;DHT22;3740;50.700;7.184;2023-03-01T01:31:36;0.60;99.90
7399;DHT22;3740;50.700;7.184;2023-03-01T01:34:04;0.50;99.90
7399;DHT22;3740;50.700;7.184;2023-03-01T01:36:30;0.50;99.90
7399;DHT22;3740;50.700;7.184;2023-03-01T01:38:56;0.40;99.90
7399;DHT22;3740;50.700;7.184;2023-03-01T01:41:23;0.40;99.90
7399;DHT22;3740;50.700;7.184;2023-03-01T01:49:29;0.50;99.90
7399;DHT22;3740;50.700;7.184;2023-03-01T01:54:59;0.40;99.90
7399;DHT22;3740;50.700;7.184;2023-03-01T01:57:40;0.30;99.90
7399;DHT22;3740;50.700;7.184;2023-03-01T02:00:19;0.40;99.90
7399;DHT22;3740;50.700;7.184;2023-03-01T02:02:46;0.40;99.90
7399;DHT22;3740;50.700;7.184;2023-03-01T02:05:32;0.40;99.90
7399;DHT22;3740;50.700;7.184;2023-03-01T02:07:59;0.30;99.90
7399;DHT22;3740;50.700;7.184;2023-03-01T02:10:25;0.30;99.90
7399;DHT22;3740;50.700;7.184;2023-03-01T02:12:52;0.30;99.90
7399;DHT22;3740;50.700;7.184;2023-03-01T02:15:18;0.30;99.90
7399;DHT22;3740;50.700;7.184;2023-03-01T02:17:44;0.20;99.90
7399;DHT22;3740;50.700;7.184;2023-03-01T02:22:54;0.20;99.90
7399;DHT22;3740;50.700;7.184;2023-03-01T02:30:40;0.20;99.90
7399;DHT22;3740;50.700;7.184;2023-03-01T02:33:27;0.20;99.90
7399;DHT22;3740;50.700;7.184;2023-03-01T02:35:54;0.10;99.90
7399;DHT22;3740;50.700;7.184;2023-03-01T02:38:21;0.20;99.90
7399;DHT22;3740;50.700;7.184;2023-03-01T02:40:50;0.20;99.90
7399;DHT22;3740;50.700;7.184;2023-03-01T02:43:17;0.10;99.90
7399;DHT22;3740;50.700;7.184;2023-03-01T02:45:49;0.10;99.90
7399;DHT22;3740;50.700;7.184;2023-03-01T02:48:15;0.20;99.90
7399;DHT22;3740;50.700;7.184;2023-03-01T02:51:01;0.10;99.90
7399;DHT22;3740;50.700;7.184;2023-03-01T02:53:39;0.10;99.90
7399;DHT22;3740;50.700;7.184;2023-03-01T02:56:07;0.00;99.90
7399;DHT22;3740;50.700;7.184;2023-03-01T02:58:41;0.00;99.90
7399;DHT22;3740;50.700;7.184;2023-03-01T03:01:14;-0.10;99.90
7399;DHT22;3740;50.700;7.184;2023-03-01T03:03:41;-0.20;99.90
7399;DHT22;3740;50.700;7.184;2023-03-01T03:06:07;-0.20;99.90
7399;DHT22;3740;50.700;7.184;2023-03-01T03:08:33;-0.20;99.90
7399;DHT22;3740;50.700;7.184;2023-03-01T03:10:59;-0.30;99.90
7399;DHT22;3740;50.700;7.184;2023-03-01T03:13:24;-0.30;99.90
7399;DHT22;3740;50.700;7.184;2023-03-01T03:15:55;-0.30;99.90
7399;DHT22;3740;50.700;7.184;2023-03-01T03:18:21;-0.20;99.90
7399;DHT22;3740;50.700;7.184;2023-03-01T03:20:48;-0.30;99.90
7399;DHT22;3740;50.700;7.184;2023-03-01T03:23:18;-0.20;99.90
7399;DHT22;3740;50.700;7.184;2023-03-01T03:25:43;-0.20;99.90
7399;DHT22;3740;50.700;7.184;2023-03-01T03:28:09;-0.20;99.90
7399;DHT22;3740;50.700;7.184;2023-03-01T03:30:37;-0.30;99.90
7399;DHT22;3740;50.700;7.184;2023-03-01T03:33:07;-0.30;99.90
7399;DHT22;3740;50.700;7.184;2023-03-01T03:35:38;-0.30;99.90
7399;DHT22;3740;50.700;7.184;2023-03-01T03:38:07;-0.30;99.90
7399;DHT22;3740;50.700;7.184;2023-03-01T03:40:42;-0.40;99.90
7399;DHT22;3740;50.700;7.184;2023-03-01T03:43:17;-0.20;99.90
7399;DHT22;3740;50.700;7.184;2023-03-01T03:45:50;-0.40;99.90
7399;DHT22;3740;50.700;7.184;2023-03-01T03:48:18;-0.30;99.90
7399;DHT22;3740;50.700;7.184;2023-03-01T03:50:54;-0.30;99.90
7399;DHT22;3740;50.700;7.184;2023-03-01T03:53:21;-0.40;99.90
7399;DHT22;3740;50.700;7.184;2023-03-01T03:55:47;-0.40;99.90
7399;DHT22;3740;50.700;7.184;2023-03-01T03:58:15;-0.40;99.90
7399;DHT22;3740;50.700;7.184;2023-03-01T04:00:43;-0.50;99.90
7399;DHT22;3740;50.700;7.184;2023-03-01T04:03:09;-0.50;99.90
7399;DHT22;3740;50.700;7.184;2023-03-01T04:05:36;-0.50;99.90
7399;DHT22;3740;50.700;7.184;2023-03-01T04:08:02;-0.50;99.90
7399;DHT22;3740;50.700;7.184;2023-03-01T04:10:30;-0.50;99.90
7399;DHT22;3740;50.700;7.184;2023-03-01T04:12:56;-0.60;99.90
7399;DHT22;3740;50.700;7.184;2023-03-01T04:15:23;-0.60;99.90
7399;DHT22;3740;50.700;7.184;2023-03-01T04:17:50;-0.50;99.90
7399;DHT22;3740;50.700;7.184;2023-03-01T04:20:25;-0.60;99.90
7399;DHT22;3740;50.700;7.184;2023-03-01T04:22:52;-0.60;99.90
7399;DHT22;3740;50.700;7.184;2023-03-01T04:25:18;-0.60;99.90
7399;DHT22;3740;50.700;7.184;2023-03-01T04:27:44;-0.50;99.90
7399;DHT22;3740;50.700;7.184;2023-03-01T04:30:10;-0.60;99.90
7399;DHT22;3740;50.700;7.184;2023-03-01T04:32:36;-0.70;99.90
7399;DHT22;3740;50.700;7.184;2023-03-01T04:35:01;-0.60;99.90
7399;DHT22;3740;50.700;7.184;2023-03-01T04:37:27;-0.70;99.90
7399;DHT22;3740;50.700;7.184;2023-03-01T04:39:53;-0.70;99.90
7399;DHT22;3740;50.700;7.184;2023-03-01T04:42:19;-0.70;99.90
7399;DHT22;3740;50.700;7.184;2023-03-01T04:44:45;-0.60;99.90
7399;DHT22;3740;50.700;7.184;2023-03-01T04:47:11;-0.60;99.90
7399;DHT22;3740;50.700;7.184;2023-03-01T04:49:37;-0.60;99.90
7399;DHT22;3740;50.700;7.184;2023-03-01T04:52:03;-0.60;99.90
7399;DHT22;3740;50.700;7.184;2023-03-01T04:54:32;-0.50;99.90
7399;DHT22;3740;50.700;7.184;2023-03-01T04:56:59;-0.60;99.90
7399;DHT22;3740;50.700;7.184;2023-03-01T04:59:25;-0.50;99.90
7399;DHT22;3740;50.700;7.184;2023-03-01T05:01:51;-0.60;99.90
7399;DHT22;3740;50.700;7.184;2023-03-01T05:04:17;-0.50;99.90
7399;DHT22;3740;50.700;7.184;2023-03-01T05:06:43;-0.60;99.90
7399;DHT22;3740;50.700;7.184;2023-03-01T05:09:09;-0.60;99.90
7399;DHT22;3740;50.700;7.184;2023-03-01T05:11:36;-0.60;99.90
7399;DHT22;3740;50.700;7.184;2023-03-01T05:14:03;-0.60;99.90
7399;DHT22;3740;50.700;7.184;2023-03-01T05:16:29;-0.70;99.90
7399;DHT22;3740;50.700;7.184;2023-03-01T05:18:56;-0.50;99.90
7399;DHT22;3740;50.700;7.184;2023-03-01T05:21:22;-0.50;99.90
7399;DHT22;3740;50.700;7.184;2023-03-01T05:23:48;-0.50;99.90
7399;DHT22;3740;50.700;7.184;2023-03-01T05:26:14;-0.60;99.90
7399;DHT22;3740;50.700;7.184;2023-03-01T05:28:40;-0.60;99.90
7399;DHT22;3740;50.700;7.184;2023-03-01T05:31:06;-0.80;99.90
7399;DHT22;3740;50.700;7.184;2023-03-01T05:33:39;-0.70;99.90
7399;DHT22;3740;50.700;7.184;2023-03-01T05:36:06;-0.80;99.90
7399;DHT22;3740;50.700;7.184;2023-03-01T05:38:33;-0.90;99.90
7399;DHT22;3740;50.700;7.184;2023-03-01T05:40:58;-1.00;99.90
7399;DHT22;3740;50.700;7.184;2023-03-01T05:43:24;-0.90;99.90
7399;DHT22;3740;50.700;7.184;2023-03-01T05:45:49;-0.90;99.90
7399;DHT22;3740;50.700;7.184;2023-03-01T05:48:15;-1.00;99.90
7399;DHT22;3740;50.700;7.184;2023-03-01T05:50:44;-1.00;99.90
7399;DHT22;3740;50.700;7.184;2023-03-01T05:53:19;-1.00;99.90
7399;DHT22;3740;50.700;7.184;2023-03-01T05:55:46;-1.00;99.90
7399;DHT22;3740;50.700;7.184;2023-03-01T05:58:18;-1.00;99.90
7399;DHT22;3740;50.700;7.184;2023-03-01T06:00:45;-0.90;99.90
7399;DHT22;3740;50.700;7.184;2023-03-01T06:03:12;-1.00;99.90
7399;DHT22;3740;50.700;7.184;2023-03-01T06:05:39;-1.00;99.90
7399;DHT22;3740;50.700;7.184;2023-03-01T06:08:05;-1.10;99.90
7399;DHT22;3740;50.700;7.184;2023-03-01T06:10:30;-1.10;99.90
7399;DHT22;3740;50.700;7.184;2023-03-01T06:12:56;-1.10;99.90
7399;DHT22;3740;50.700;7.184;2023-03-01T06:15:22;-1.00;99.90
7399;DHT22;3740;50.700;7.184;2023-03-01T06:17:48;-1.00;99.90
7399;DHT22;3740;50.700;7.184;2023-03-01T06:20:20;-1.10;99.90
7399;DHT22;3740;50.700;7.184;2023-03-01T06:22:46;-1.00;99.90
7399;DHT22;3740;50.700;7.184;2023-03-01T06:25:14;-1.10;99.90
7399;DHT22;3740;50.700;7.184;2023-03-01T06:27:41;-1.10;99.90
7399;DHT22;3740;50.700;7.184;2023-03-01T06:30:08;-1.10;99.90
7399;DHT22;3740;50.700;7.184;2023-03-01T06:32:36;-1.00;99.90
7399;DHT22;3740;50.700;7.184;2023-03-01T06:35:01;-1.00;99.90
7399;DHT22;3740;50.700;7.184;2023-03-01T06:37:27;-0.90;99.90
7399;DHT22;3740;50.700;7.184;2023-03-01T06:39:52;-0.80;99.90
7399;DHT22;3740;50.700;7.184;2023-03-01T06:42:18;-0.80;99.90
7399;DHT22;3740;50.700;7.184;2023-03-01T06:44:44;-0.70;99.90
7399;DHT22;3740;50.700;7.184;2023-03-01T06:47:11;-0.70;99.90
7399;DHT22;3740;50.700;7.184;2023-03-01T06:49:36;-0.80;99.90
7399;DHT22;3740;50.700;7.184;2023-03-01T06:52:02;-0.70;99.90
7399;DHT22;3740;50.700;7.184;2023-03-01T06:54:27;-0.70;99.90
7399;DHT22;3740;50.700;7.184;2023-03-01T06:56:53;-0.70;99.90
7399;DHT22;3740;50.700;7.184;2023-03-01T06:59:19;-0.70;99.90
7399;DHT22;3740;50.700;7.184;2023-03-01T07:01:45;-0.50;99.90
7399;DHT22;3740;50.700;7.184;2023-03-01T07:04:12;-0.50;99.90
7399;DHT22;3740;50.700;7.184;2023-03-01T07:06:38;-0.30;99.90
7399;DHT22;3740;50.700;7.184;2023-03-01T07:09:03;-0.40;99.90
7399;DHT22;3740;50.700;7.184;2023-03-01T07:11:29;-0.30;99.90
7399;DHT22;3740;50.700;7.184;2023-03-01T07:13:55;-0.30;99.90
7399;DHT22;3740;50.700;7.184;2023-03-01T07:16:21;-0.20;99.90
7399;DHT22;3740;50.700;7.184;2023-03-01T07:18:47;-0.10;99.90
7399;DHT22;3740;50.700;7.184;2023-03-01T07:21:13;-0.10;99.90
7399;DHT22;3740;50.700;7.184;2023-03-01T07:23:40;-0.10;99.90
7399;DHT22;3740;50.700;7.184;2023-03-01T07:26:06;-0.10;99.90
7399;DHT22;3740;50.700;7.184;2023-03-01T07:28:32;-0.20;99.90
7399;DHT22;3740;50.700;7.184;2023-03-01T07:31:05;-0.30;99.90
7399;DHT22;3740;50.700;7.184;2023-03-01T07:33:31;-0.30;99.90
7399;DHT22;3740;50.700;7.184;2023-03-01T07:35:58;-0.20;99.90
7399;DHT22;3740;50.700;7.184;2023-03-01T07:38:24;0.10;99.90
7399;DHT22;3740;50.700;7.184;2023-03-01T07:40:50;0.30;99.90
7399;DHT22;3740;50.700;7.184;2023-03-01T07:43:15;0.40;99.90
7399;DHT22;3740;50.700;7.184;2023-03-01T07:45:41;0.50;99.90
7399;DHT22;3740;50.700;7.184;2023-03-01T07:48:06;0.50;99.90
7399;DHT22;3740;50.700;7.184;2023-03-01T07:50:32;0.50;99.90
7399;DHT22;3740;50.700;7.184;2023-03-01T07:52:58;0.50;99.90
7399;DHT22;3740;50.700;7.184;2023-03-01T07:55:23;0.60;99.90
7399;DHT22;3740;50.700;7.184;2023-03-01T07:57:49;0.60;99.90
7399;DHT22;3740;50.700;7.184;2023-03-01T08:00:14;0.70;99.90
7399;DHT22;3740;50.700;7.184;2023-03-01T08:02:40;0.60;99.90
7399;DHT22;3740;50.700;7.184;2023-03-01T08:05:07;0.60;99.90
7399;DHT22;3740;50.700;7.184;2023-03-01T08:07:34;0.70;99.90
7399;DHT22;3740;50.700;7.184;2023-03-01T08:09:59;0.70;99.90
7399;DHT22;3740;50.700;7.184;2023-03-01T08:12:25;0.70;99.90
7399;DHT22;3740;50.700;7.184;2023-03-01T08:14:52;0.80;99.90
7399;DHT22;3740;50.700;7.184;2023-03-01T08:17:18;0.90;99.90
7399;DHT22;3740;50.700;7.184;2023-03-01T08:19:44;1.00;99.90
7399;DHT22;3740;50.700;7.184;2023-03-01T08:22:10;0.90;99.90
7399;DHT22;3740;50.700;7.184;2023-03-01T08:24:35;1.00;99.90
7399;DHT22;3740;50.700;7.184;2023-03-01T08:27:01;1.10;99.90
7399;DHT22;3740;50.700;7.184;2023-03-01T08:29:30;1.00;99.90
7399;DHT22;3740;50.700;7.184;2023-03-01T08:31:55;1.10;99.90
7399;DHT22;3740;50.700;7.184;2023-03-01T08:34:21;1.30;99.90
7399;DHT22;3740;50.700;7.184;2023-03-01T08:36:47;1.50;99.90
7399;DHT22;3740;50.700;7.184;2023-03-01T08:39:15;1.60;99.90
7399;DHT22;3740;50.700;7.184;2023-03-01T08:41:42;1.50;99.90
7399;DHT22;3740;50.700;7.184;2023-03-01T08:44:09;1.30;99.90
7399;DHT22;3740;50.700;7.184;2023-03-01T08:46:38;1.50;99.90
7399;DHT22;3740;50.700;7.184;2023-03-01T08:49:08;1.80;99.90
7399;DHT22;3740;50.700;7.184;2023-03-01T08:51:36;1.50;99.90
7399;DHT22;3740;50.700;7.184;2023-03-01T08:54:06;1.40;99.90
7399;DHT22;3740;50.700;7.184;2023-03-01T08:56:32;1.70;99.90
7399;DHT22;3740;50.700;7.184;2023-03-01T08:58:58;1.90;99.90
7399;DHT22;3740;50.700;7.184;2023-03-01T09:01:23;2.30;99.90
7399;DHT22;3740;50.700;7.184;2023-03-01T09:03:49;2.20;99.90
7399;DHT22;3740;50.700;7.184;2023-03-01T09:06:14;2.30;99.90
7399;DHT22;3740;50.700;7.184;2023-03-01T09:08:43;2.50;99.90
7399;DHT22;3740;50.700;7.184;2023-03-01T09:11:11;2.30;99.90
7399;DHT22;3740;50.700;7.184;2023-03-01T09:13:37;2.40;99.90
7399;DHT22;3740;50.700;7.184;2023-03-01T09:16:04;2.20;99.90
7399;DHT22;3740;50.700;7.184;2023-03-01T09:18:30;2.10;99.90
7399;DHT22;3740;50.700;7.184;2023-03-01T09:21:13;2.50;99.90
7399;DHT22;3740;50.700;7.184;2023-03-01T09:23:41;3.00;99.90
7399;DHT22;3740;50.700;7.184;2023-03-01T09:26:09;3.30;99.90
7399;DHT22;3740;50.700;7.184;2023-03-01T09:28:37;3.50;99.90
7399;DHT22;3740;50.700;7.184;2023-03-01T09:31:04;3.60;99.90
7399;DHT22;3740;50.700;7.184;2023-03-01T09:33:31;3.80;99.90
7399;DHT22;3740;50.700;7.184;2023-03-01T09:36:02;3.80;99.90
7399;DHT22;3740;50.700;7.184;2023-03-01T09:38:28;3.80;99.90
7399;DHT22;3740;50.700;7.184;2023-03-01T09:40:53;3.60;99.90
7399;DHT22;3740;50.700;7.184;2023-03-01T09:46:43;3.40;99.90
7399;DHT22;3740;50.700;7.184;2023-03-01T09:49:14;3.20;99.90
7399;DHT22;3740;50.700;7.184;2023-03-01T09:51:54;3.50;99.90
7399;DHT22;3740;50.700;7.184;2023-03-01T09:54:20;3.60;99.90
7399;DHT22;3740;50.700;7.184;2023-03-01T09:57:05;3.90;99.90
7399;DHT22;3740;50.700;7.184;2023-03-01T10:05:40;4.40;99.90
7399;DHT22;3740;50.700;7.184;2023-03-01T10:08:24;4.40;99.90
7399;DHT22;3740;50.700;7.184;2023-03-01T10:10:52;4.50;99.90
7399;DHT22;3740;50.700;7.184;2023-03-01T10:19:24;5.50;99.90
7399;DHT22;3740;50.700;7.184;2023-03-01T10:21:51;5.40;99.90
7399;DHT22;3740;50.700;7.184;2023-03-01T10:24:18;5.50;99.90
7399;DHT22;3740;50.700;7.184;2023-03-01T10:26:57;5.70;99.70
7399;DHT22;3740;50.700;7.184;2023-03-01T10:29:31;6.00;99.90
7399;DHT22;3740;50.700;7.184;2023-03-01T10:32:00;6.20;99.70
7399;DHT22;3740;50.700;7.184;2023-03-01T10:34:34;7.10;99.60
7399;DHT22;3740;50.700;7.184;2023-03-01T10:37:17;9.60;94.80
7399;DHT22;3740;50.700;7.184;2023-03-01T10:42:47;13.80;71.30
7399;DHT22;3740;50.700;7.184;2023-03-01T10:47:44;15.30;63.30
7399;DHT22;3740;50.700;7.184;2023-03-01T10:50:21;17.40;59.90
7399;DHT22;3740;50.700;7.184;2023-03-01T10:53:29;19.40;53.20
7399;DHT22;3740;50.700;7.184;2023-03-01T10:58:29;19.60;49.50
7399;DHT22;3740;50.700;7.184;2023-03-01T11:01:01;20.70;48.30
7399;DHT22;3740;50.700;7.184;2023-03-01T11:03:35;20.40;45.80
7399;DHT22;3740;50.700;7.184;2023-03-01T11:06:22;21.30;45.40
7399;DHT22;3740;50.700;7.184;2023-03-01T11:08:50;21.90;44.90
7399;DHT22;3740;50.700;7.184;2023-03-01T11:11:31;22.10;41.40
7399;DHT22;3740;50.700;7.184;2023-03-01T11:14:16;20.80;42.50
7399;DHT22;3740;50.700;7.184;2023-03-01T11:16:45;20.70;42.30
7399;DHT22;3740;50.700;7.184;2023-03-01T11:21:55;22.40;42.10
7399;DHT22;3740;50.700;7.184;2023-03-01T11:24:30;21.90;41.00
7399;DHT22;3740;50.700;7.184;2023-03-01T11:27:00;20.20;41.00
7399;DHT22;3740;50.700;7.184;2023-03-01T11:29:32;20.50;40.40
7399;DHT22;3740;50.700;7.184;2023-03-01T11:32:04;20.50;41.10
7399;DHT22;3740;50.700;7.184;2023-03-01T11:34:46;20.80;40.90
7399;DHT22;3740;50.700;7.184;2023-03-01T11:42:46;21.20;40.10
7399;DHT22;3740;50.700;7.184;2023-03-01T11:45:13;21.70;39.60
7399;DHT22;3740;50.700;7.184;2023-03-01T11:50:26;19.40;40.20
7399;DHT22;3740;50.700;7.184;2023-03-01T11:55:51;16.80;42.40
7399;DHT22;3740;50.700;7.184;2023-03-01T12:09:02;17.70;41.90
7399;DHT22;3740;50.700;7.184;2023-03-01T12:12:17;19.00;41.00
7399;DHT22;3740;50.700;7.184;2023-03-01T12:27:21;20.00;39.20
7399;DHT22;3740;50.700;7.184;2023-03-01T12:33:17;20.50;38.20
7399;DHT22;3740;50.700;7.184;2023-03-01T12:35:50;19.70;40.50
7399;DHT22;3740;50.700;7.184;2023-03-01T12:41:11;16.50;40.50
7399;DHT22;3740;50.700;7.184;2023-03-01T12:46:41;15.60;43.20
7399;DHT22;3740;50.700;7.184;2023-03-01T12:54:36;15.50;45.10
7399;DHT22;3740;50.700;7.184;2023-03-01T12:57:28;16.50;45.20
7399;DHT22;3740;50.700;7.184;2023-03-01T13:00:27;16.50;42.60
7399;DHT22;3740;50.700;7.184;2023-03-01T13:11:04;13.80;44.70
7399;DHT22;3740;50.700;7.184;2023-03-01T13:13:30;14.00;45.40
7399;DHT22;3740;50.700;7.184;2023-03-01T13:15:57;14.30;45.50
7399;DHT22;3740;50.700;7.184;2023-03-01T13:20:51;14.10;45.00
7399;DHT22;3740;50.700;7.184;2023-03-01T13:31:01;13.30;44.50
7399;DHT22;3740;50.700;7.184;2023-03-01T13:35:56;13.40;46.40
7399;DHT22;3740;50.700;7.184;2023-03-01T13:39:00;13.50;46.10
7399;DHT22;3740;50.700;7.184;2023-03-01T13:44:18;14.40;45.60
7399;DHT22;3740;50.700;7.184;2023-03-01T13:46:46;14.80;44.70
7399;DHT22;3740;50.700;7.184;2023-03-01T13:49:48;14.70;44.90
7399;DHT22;3740;50.700;7.184;2023-03-01T13:52:35;14.20;43.60
7399;DHT22;3740;50.700;7.184;2023-03-01T13:57:44;13.80;45.90
7399;DHT22;3740;50.700;7.184;2023-03-01T14:00:35;13.60;43.90
7399;DHT22;3740;50.700;7.184;2023-03-01T14:03:15;13.30;44.30
7399;DHT22;3740;50.700;7.184;2023-03-01T14:05:56;13.10;44.10
7399;DHT22;3740;50.700;7.184;2023-03-01T14:08:24;13.10;44.40
7399;DHT22;3740;50.700;7.184;2023-03-01T14:13:33;13.20;44.70
7399;DHT22;3740;50.700;7.184;2023-03-01T14:16:09;13.60;44.70
7399;DHT22;3740;50.700;7.184;2023-03-01T14:21:35;13.30;43.30
7399;DHT22;3740;50.700;7.184;2023-03-01T14:24:02;13.20;46.10
7399;DHT22;3740;50.700;7.184;2023-03-01T14:26:27;13.70;45.80
7399;DHT22;3740;50.700;7.184;2023-03-01T14:28:53;13.70;45.40
7399;DHT22;3740;50.700;7.184;2023-03-01T14:31:35;13.60;43.70
7399;DHT22;3740;50.700;7.184;2023-03-01T14:34:02;13.90;44.30
7399;DHT22;3740;50.700;7.184;2023-03-01T14:36:30;13.90;42.90
7399;DHT22;3740;50.700;7.184;2023-03-01T14:38:56;14.00;43.10
7399;DHT22;3740;50.700;7.184;2023-03-01T14:41:27;14.00;42.90
7399;DHT22;3740;50.700;7.184;2023-03-01T14:43:57;13.90;43.50
7399;DHT22;3740;50.700;7.184;2023-03-01T14:46:30;13.80;43.10
7399;DHT22;3740;50.700;7.184;2023-03-01T14:49:02;14.00;44.40
7399;DHT22;3740;50.700;7.184;2023-03-01T14:51:28;13.80;43.70
7399;DHT22;3740;50.700;7.184;2023-03-01T14:53:54;13.90;42.30
7399;DHT22;3740;50.700;7.184;2023-03-01T14:56:20;13.70;43.80
7399;DHT22;3740;50.700;7.184;2023-03-01T14:58:46;13.80;44.00
7399;DHT22;3740;50.700;7.184;2023-03-01T15:01:16;13.70;42.40
7399;DHT22;3740;50.700;7.184;2023-03-01T15:03:45;13.80;43.00
7399;DHT22;3740;50.700;7.184;2023-03-01T15:06:15;13.80;42.00
7399;DHT22;3740;50.700;7.184;2023-03-01T15:08:45;13.70;42.10
7399;DHT22;3740;50.700;7.184;2023-03-01T15:11:24;13.30;42.30
7399;DHT22;3740;50.700;7.184;2023-03-01T15:13:50;13.10;42.90
7399;DHT22;3740;50.700;7.184;2023-03-01T15:16:23;12.70;42.00
7399;DHT22;3740;50.700;7.184;2023-03-01T15:18:55;12.60;43.50
7399;DHT22;3740;50.700;7.184;2023-03-01T15:21:26;12.60;44.60
7399;DHT22;3740;50.700;7.184;2023-03-01T15:24:16;12.80;44.50
7399;DHT22;3740;50.700;7.184;2023-03-01T15:27:00;12.50;43.50
7399;DHT22;3740;50.700;7.184;2023-03-01T15:29:33;12.70;44.50
7399;DHT22;3740;50.700;7.184;2023-03-01T15:32:04;12.70;44.00
7399;DHT22;3740;50.700;7.184;2023-03-01T15:34:32;12.60;43.90
7399;DHT22;3740;50.700;7.184;2023-03-01T15:37:00;12.30;43.30
7399;DHT22;3740;50.700;7.184;2023-03-01T15:39:42;12.30;44.60
7399;DHT22;3740;50.700;7.184;2023-03-01T15:42:11;12.20;44.20
7399;DHT22;3740;50.700;7.184;2023-03-01T15:44:39;12.20;44.40
7399;DHT22;3740;50.700;7.184;2023-03-01T15:47:29;12.10;46.70
7399;DHT22;3740;50.700;7.184;2023-03-01T15:49:55;12.50;46.80
7399;DHT22;3740;50.700;7.184;2023-03-01T15:52:32;12.70;46.30
7399;DHT22;3740;50.700;7.184;2023-03-01T15:55:04;12.90;45.60
7399;DHT22;3740;50.700;7.184;2023-03-01T15:57:30;13.10;44.20
7399;DHT22;3740;50.700;7.184;2023-03-01T15:59:56;13.00;43.30
7399;DHT22;3740;50.700;7.184;2023-03-01T16:02:23;12.70;44.00
7399;DHT22;3740;50.700;7.184;2023-03-01T16:04:49;12.70;44.60
7399;DHT22;3740;50.700;7.184;2023-03-01T16:07:15;12.70;45.30
7399;DHT22;3740;50.700;7.184;2023-03-01T16:09:41;12.50;44.80
7399;DHT22;3740;50.700;7.184;2023-03-01T16:12:13;12.40;46.00
7399;DHT22;3740;50.700;7.184;2023-03-01T16:14:39;12.40;45.60
7399;DHT22;3740;50.700;7.184;2023-03-01T16:17:05;12.60;45.90
7399;DHT22;3740;50.700;7.184;2023-03-01T16:19:30;12.60;45.00
7399;DHT22;3740;50.700;7.184;2023-03-01T16:21:56;12.70;46.00
7399;DHT22;3740;50.700;7.184;2023-03-01T16:24:22;12.30;45.10
7399;DHT22;3740;50.700;7.184;2023-03-01T16:26:47;12.00;46.10
7399;DHT22;3740;50.700;7.184;2023-03-01T16:29:13;11.70;47.40
7399;DHT22;3740;50.700;7.184;2023-03-01T16:31:38;11.40;46.90
7399;DHT22;3740;50.700;7.184;2023-03-01T16:34:04;11.30;48.10
7399;DHT22;3740;50.700;7.184;2023-03-01T16:36:30;11.30;48.50
7399;DHT22;3740;50.700;7.184;2023-03-01T16:38:58;11.20;47.60
7399;DHT22;3740;50.700;7.184;2023-03-01T16:41:27;11.00;48.00
7399;DHT22;3740;50.700;7.184;2023-03-01T16:43:52;11.20;48.50
7399;DHT22;3740;50.700;7.184;2023-03-01T16:46:28;11.00;49.60
7399;DHT22;3740;50.700;7.184;2023-03-01T16:48:54;11.00;50.30
7399;DHT22;3740;50.700;7.184;2023-03-01T16:51:21;10.90;49.80
7399;DHT22;3740;50.700;7.184;2023-03-01T16:53:47;10.80;51.10
7399;DHT22;3740;50.700;7.184;2023-03-01T16:56:13;10.80;51.10
7399;DHT22;3740;50.700;7.184;2023-03-01T16:58:40;10.60;49.70
7399;DHT22;3740;50.700;7.184;2023-03-01T17:01:15;10.40;49.50
7399;DHT22;3740;50.700;7.184;2023-03-01T17:03:41;10.20;50.00
7399;DHT22;3740;50.700;7.184;2023-03-01T17:06:10;10.00;49.50
7399;DHT22;3740;50.700;7.184;2023-03-01T17:08:37;9.90;51.10
7399;DHT22;3740;50.700;7.184;2023-03-01T17:11:05;9.80;52.00
7399;DHT22;3740;50.700;7.184;2023-03-01T17:13:31;9.60;50.70
7399;DHT22;3740;50.700;7.184;2023-03-01T17:15:56;9.60;50.00
7399;DHT22;3740;50.700;7.184;2023-03-01T17:18:22;9.50;48.90
7399;DHT22;3740;50.700;7.184;2023-03-01T17:20:48;9.50;50.20
7399;DHT22;3740;50.700;7.184;2023-03-01T17:23:14;9.40;50.60
7399;DHT22;3740;50.700;7.184;2023-03-01T17:25:43;9.30;50.30
7399;DHT22;3740;50.700;7.184;2023-03-01T17:28:11;9.20;50.00
7399;DHT22;3740;50.700;7.184;2023-03-01T17:30:37;9.00;50.30
7399;DHT22;3740;50.700;7.184;2023-03-01T17:33:02;9.10;50.60
7399;DHT22;3740;50.700;7.184;2023-03-01T17:35:28;9.00;51.10
7399;DHT22;3740;50.700;7.184;2023-03-01T17:37:53;9.00;51.20
7399;DHT22;3740;50.700;7.184;2023-03-01T17:40:19;8.90;51.40
7399;DHT22;3740;50.700;7.184;2023-03-01T17:42:44;8.80;51.70
7399;DHT22;3740;50.700;7.184;2023-03-01T17:45:10;8.60;51.70
7399;DHT22;3740;50.700;7.184;2023-03-01T17:47:36;8.60;53.10
7399;DHT22;3740;50.700;7.184;2023-03-01T17:50:02;8.50;52.90
7399;DHT22;3740;50.700;7.184;2023-03-01T17:52:29;8.50;53.10
7399;DHT22;3740;50.700;7.184;2023-03-01T17:54:55;8.50;52.70
7399;DHT22;3740;50.700;7.184;2023-03-01T17:57:21;8.40;53.30
7399;DHT22;3740;50.700;7.184;2023-03-01T17:59:46;8.30;53.40
7399;DHT22;3740;50.700;7.184;2023-03-01T18:02:12;8.30;53.80
7399;DHT22;3740;50.700;7.184;2023-03-01T18:04:38;8.10;53.40
7399;DHT22;3740;50.700;7.184;2023-03-01T18:07:03;8.00;54.30
7399;DHT22;3740;50.700;7.184;2023-03-01T18:09:29;7.90;56.90
7399;DHT22;3740;50.700;7.184;2023-03-01T18:11:55;8.00;56.90
7399;DHT22;3740;50.700;7.184;2023-03-01T18:14:21;8.10;57.40
7399;DHT22;3740;50.700;7.184;2023-03-01T18:16:46;8.10;57.40
7399;DHT22;3740;50.700;7.184;2023-03-01T18:19:12;8.10;54.80
7399;DHT22;3740;50.700;7.184;2023-03-01T18:21:38;8.10;54.30
7399;DHT22;3740;50.700;7.184;2023-03-01T18:24:03;8.00;54.30